sensor_id;sensor_type;location;lat;lon;timestamp;temperature;humidity
25332;DHT22;13284;52.748;13.452;2024-03-22T00:00:01;7.50;99.90
25332;DHT22;13284;52.748;13.452;2024-03-22T00:02:27;7.50;99.90
25332;DHT22;13284;52.748;13.452;2024-03-22T00:04:52;7.60;99.90
25332;DHT22;13284;52.748;13.452;2024-03-22T00:07:18;7.60;99.90
25332;DHT22;13284;52.748;13.452;2024-03-22T00:09:43;7.60;99.90
25332;DHT22;13284;52.748;13.452;2024-03-22T00:12:09;7.60;99.90
25332;DHT22;13284;52.748;13.452;2024-03-22T00:14:34;7.70;99.90
25332;DHT22;13284;52.748;13.452;2024-03-22T00:17:00;7.60;99.90
25332;DHT22;13284;52.748;13.452;2024-03-22T00:19:25;7.70;99.90
25332;DHT22;13284;52.748;13.452;2024-03-22T00:21:51;7.70;99.90
25332;DHT22;13284;52.748;13.452;2024-03-22T00:24:16;7.70;99.90
25332;DHT22;13284;52.748;13.452;2024-03-22T00:26:42;7.70;99.90
25332;DHT22;13284;52.748;13.452;2024-03-22T00:29:07;7.60;99.90
25332;DHT22;13284;52.748;13.452;2024-03-22T00:31:33;7.60;99.90
25332;DHT22;13284;52.748;13.452;2024-03-22T00:33:59;7.60;99.90
25332;DHT22;13284;52.748;13.452;2024-03-22T00:36:24;7.60;99.90
25332;DHT22;13284;52.748;13.452;2024-03-22T00:38:50;7.60;99.90
25332;DHT22;13284;52.748;13.452;2024-03-22T00:41:15;7.60;99.90
25332;DHT22;13284;52.748;13.452;2024-03-22T00:43:40;7.70;99.90
25332;DHT22;13284;52.748;13.452;2024-03-22T00:46:06;7.70;99.90
25332;DHT22;13284;52.748;13.452;2024-03-22T00:48:33;7.70;99.90
25332;DHT22;13284;52.748;13.452;2024-03-22T00:50:58;7.70;99.90
25332;DHT22;13284;52.748;13.452;2024-03-22T00:53:24;7.60;99.90
25332;DHT22;13284;52.748;13.452;2024-03-22T00:55:49;7.60;99.90
25332;DHT22;13284;52.748;13.452;2024-03-22T00:58:18;7.60;99.90
25332;DHT22;13284;52.748;13.452;2024-03-22T01:00:44;7.60;99.90
25332;DHT22;13284;52.748;13.452;2024-03-22T01:03:10;7.60;99.90
25332;DHT22;13284;52.748;13.452;2024-03-22T01:05:35;7.70;99.90
25332;DHT22;13284;52.748;13.452;2024-03-22T01:08:01;7.70;99.90
25332;DHT22;13284;52.748;13.452;2024-03-22T01:10:27;7.70;99.90
25332;DHT22;13284;52.748;13.452;2024-03-22T01:12:52;7.70;99.90
25332;DHT22;13284;52.748;13.452;2024-03-22T01:15:18;7.70;99.90
25332;DHT22;13284;52.748;13.452;2024-03-22T01:17:43;7.70;99.90
25332;DHT22;13284;52.748;13.452;2024-03-22T01:20:09;7.70;99.90
25332;DHT22;13284;52.748;13.452;2024-03-22T01:22:35;7.70;99.90
25332;DHT22;13284;52.748;13.452;2024-03-22T01:25:00;7.70;99.90
25332;DHT22;13284;52.748;13.452;2024-03-22T01:27:26;7.70;99.90
25332;DHT22;13284;52.748;13.452;2024-03-22T01:29:51;7.70;99.90
25332;DHT22;13284;52.748;13.452;2024-03-22T01:32:17;7.70;99.90
25332;DHT22;13284;52.748;13.452;2024-03-22T01:34:42;7.70;99.90
25332;DHT22;13284;52.748;13.452;2024-03-22T01:37:08;7.70;99.90
25332;DHT22;13284;52.748;13.452;2024-03-22T01:39:34;7.70;99.90
25332;DHT22;13284;52.748;13.452;2024-03-22T01:41:59;7.70;99.90
25332;DHT22;13284;52.748;13.452;2024-03-22T01:44:29;7.70;99.90
25332;DHT22;13284;52.748;13.452;2024-03-22T01:46:56;7.70;99.90
25332;DHT22;13284;52.748;13.452;2024-03-22T01:49:22;7.70;99.90
25332;DHT22;13284;52.748;13.452;2024-03-22T01:51:50;7.70;99.90
25332;DHT22;13284;52.748;13.452;2024-03-22T01:54:16;7.70;99.90
25332;DHT22;13284;52.748;13.452;2024-03-22T01:56:42;7.70;99.90
25332;DHT22;13284;52.748;13.452;2024-03-22T01:59:08;7.70;99.90
25332;DHT22;13284;52.748;13.452;2024-03-22T02:01:35;7.70;99.90
25332;DHT22;13284;52.748;13.452;2024-03-22T02:04:01;7.70;99.90
25332;DHT22;13284;52.748;13.452;2024-03-22T02:06:27;7.70;99.90
25332;DHT22;13284;52.748;13.452;2024-03-22T02:08:53;7.70;99.90
25332;DHT22;13284;52.748;13.452;2024-03-22T02:11:18;7.70;99.90
25332;DHT22;13284;52.748;13.452;2024-03-22T02:13:45;7.70;99.90
25332;DHT22;13284;52.748;13.452;2024-03-22T02:16:11;7.70;99.90
25332;DHT22;13284;52.748;13.452;2024-03-22T02:18:37;7.70;99.90
25332;DHT22;13284;52.748;13.452;2024-03-22T02:21:02;7.70;99.90
25332;DHT22;13284;52.748;13.452;2024-03-22T02:23:39;7.70;99.90
25332;DHT22;13284;52.748;13.452;2024-03-22T02:26:06;7.70;99.90
25332;DHT22;13284;52.748;13.452;2024-03-22T02:28:32;7.70;99.90
25332;DHT22;13284;52.748;13.452;2024-03-22T02:30:58;7.70;99.90
25332;DHT22;13284;52.748;13.452;2024-03-22T02:33:24;7.80;99.90
25332;DHT22;13284;52.748;13.452;2024-03-22T02:35:50;7.70;99.90
25332;DHT22;13284;52.748;13.452;2024-03-22T02:38:16;7.80;99.90
25332;DHT22;13284;52.748;13.452;2024-03-22T02:40:46;7.80;99.90
25332;DHT22;13284;52.748;13.452;2024-03-22T02:43:12;7.80;99.90
25332;DHT22;13284;52.748;13.452;2024-03-22T02:45:38;7.80;99.90
25332;DHT22;13284;52.748;13.452;2024-03-22T02:48:04;7.80;99.90
25332;DHT22;13284;52.748;13.452;2024-03-22T02:50:33;7.80;99.90
25332;DHT22;13284;52.748;13.452;2024-03-22T02:52:59;7.80;99.90
25332;DHT22;13284;52.748;13.452;2024-03-22T02:55:24;7.80;99.90
25332;DHT22;13284;52.748;13.452;2024-03-22T02:57:50;7.80;99.90
25332;DHT22;13284;52.748;13.452;2024-03-22T03:00:16;7.80;99.90
25332;DHT22;13284;52.748;13.452;2024-03-22T03:02:41;7.80;99.90
25332;DHT22;13284;52.748;13.452;2024-03-22T03:05:07;7.80;99.90
25332;DHT22;13284;52.748;13.452;2024-03-22T03:07:34;7.80;99.90
25332;DHT22;13284;52.748;13.452;2024-03-22T03:09:59;7.80;99.90
25332;DHT22;13284;52.748;13.452;2024-03-22T03:12:25;7.80;99.90
25332;DHT22;13284;52.748;13.452;2024-03-22T03:14:50;7.80;99.90
25332;DHT22;13284;52.748;13.452;2024-03-22T03:17:16;7.80;99.90
25332;DHT22;13284;52.748;13.452;2024-03-22T03:19:41;7.80;99.90
25332;DHT22;13284;52.748;13.452;2024-03-22T03:22:07;7.80;99.90
25332;DHT22;13284;52.748;13.452;2024-03-22T03:24:32;7.80;99.90
25332;DHT22;13284;52.748;13.452;2024-03-22T03:26:58;7.80;99.90
25332;DHT22;13284;52.748;13.452;2024-03-22T03:29:23;7.80;99.90
25332;DHT22;13284;52.748;13.452;2024-03-22T03:31:49;7.80;99.90
25332;DHT22;13284;52.748;13.452;2024-03-22T03:34:14;7.80;99.90
25332;DHT22;13284;52.748;13.452;2024-03-22T03:36:40;7.80;99.90
25332;DHT22;13284;52.748;13.452;2024-03-22T03:39:05;7.80;99.90
25332;DHT22;13284;52.748;13.452;2024-03-22T03:41:31;7.80;99.90
25332;DHT22;13284;52.748;13.452;2024-03-22T03:43:57;7.80;99.90
25332;DHT22;13284;52.748;13.452;2024-03-22T03:46:22;7.80;99.90
25332;DHT22;13284;52.748;13.452;2024-03-22T03:48:48;7.80;99.90
25332;DHT22;13284;52.748;13.452;2024-03-22T03:51:13;7.80;99.90
25332;DHT22;13284;52.748;13.452;2024-03-22T03:53:39;7.80;99.90
25332;DHT22;13284;52.748;13.452;2024-03-22T03:56:04;7.80;99.90
25332;DHT22;13284;52.748;13.452;2024-03-22T03:58:30;7.90;99.90
25332;DHT22;13284;52.748;13.452;2024-03-22T04:00:55;7.90;99.90
25332;DHT22;13284;52.748;13.452;2024-03-22T04:03:21;7.90;99.90
25332;DHT22;13284;52.748;13.452;2024-03-22T04:05:46;7.90;99.90
25332;DHT22;13284;52.748;13.452;2024-03-22T04:08:12;7.90;99.90
25332;DHT22;13284;52.748;13.452;2024-03-22T04:10:37;7.90;99.90
25332;DHT22;13284;52.748;13.452;2024-03-22T04:13:03;7.90;99.90
25332;DHT22;13284;52.748;13.452;2024-03-22T04:15:28;7.90;99.90
25332;DHT22;13284;52.748;13.452;2024-03-22T04:17:56;7.90;99.90
25332;DHT22;13284;52.748;13.452;2024-03-22T04:20:22;7.90;99.90
25332;DHT22;13284;52.748;13.452;2024-03-22T04:22:47;8.00;99.90
25332;DHT22;13284;52.748;13.452;2024-03-22T04:25:15;8.00;99.90
25332;DHT22;13284;52.748;13.452;2024-03-22T04:27:40;8.00;99.90
25332;DHT22;13284;52.748;13.452;2024-03-22T04:30:06;8.00;99.90
25332;DHT22;13284;52.748;13.452;2024-03-22T04:32:31;8.00;99.90
25332;DHT22;13284;52.748;13.452;2024-03-22T04:34:57;8.00;99.90
25332;DHT22;13284;52.748;13.452;2024-03-22T04:37:22;8.00;99.90
25332;DHT22;13284;52.748;13.452;2024-03-22T04:39:49;8.00;99.90
25332;DHT22;13284;52.748;13.452;2024-03-22T04:42:14;8.00;99.90
25332;DHT22;13284;52.748;13.452;2024-03-22T04:44:41;8.00;99.90
25332;DHT22;13284;52.748;13.452;2024-03-22T04:47:06;8.00;99.90
25332;DHT22;13284;52.748;13.452;2024-03-22T04:49:32;8.00;99.90
25332;DHT22;13284;52.748;13.452;2024-03-22T04:51:57;8.00;99.90
25332;DHT22;13284;52.748;13.452;2024-03-22T04:54:23;8.10;99.90
25332;DHT22;13284;52.748;13.452;2024-03-22T04:56:48;8.00;99.90
25332;DHT22;13284;52.748;13.452;2024-03-22T04:59:14;8.10;99.90
25332;DHT22;13284;52.748;13.452;2024-03-22T05:01:39;8.00;99.90
25332;DHT22;13284;52.748;13.452;2024-03-22T05:04:05;8.10;99.90
25332;DHT22;13284;52.748;13.452;2024-03-22T05:06:30;8.10;99.90
25332;DHT22;13284;52.748;13.452;2024-03-22T05:08:56;8.10;99.90
25332;DHT22;13284;52.748;13.452;2024-03-22T05:11:21;8.10;99.90
25332;DHT22;13284;52.748;13.452;2024-03-22T05:13:46;8.10;99.90
25332;DHT22;13284;52.748;13.452;2024-03-22T05:16:12;8.20;99.90
25332;DHT22;13284;52.748;13.452;2024-03-22T05:18:38;8.10;99.90
25332;DHT22;13284;52.748;13.452;2024-03-22T05:21:03;8.20;99.90
25332;DHT22;13284;52.748;13.452;2024-03-22T05:23:29;8.20;99.90
25332;DHT22;13284;52.748;13.452;2024-03-22T05:25:54;8.20;99.90
25332;DHT22;13284;52.748;13.452;2024-03-22T05:28:20;8.20;99.90
25332;DHT22;13284;52.748;13.452;2024-03-22T05:30:46;8.20;99.90
25332;DHT22;13284;52.748;13.452;2024-03-22T05:33:12;8.20;99.90
25332;DHT22;13284;52.748;13.452;2024-03-22T05:35:38;8.30;99.90
25332;DHT22;13284;52.748;13.452;2024-03-22T05:38:03;8.20;99.90
25332;DHT22;13284;52.748;13.452;2024-03-22T05:40:29;8.30;99.90
25332;DHT22;13284;52.748;13.452;2024-03-22T05:42:54;8.30;99.90
25332;DHT22;13284;52.748;13.452;2024-03-22T05:45:20;8.40;99.90
25332;DHT22;13284;52.748;13.452;2024-03-22T05:47:45;8.40;99.90
25332;DHT22;13284;52.748;13.452;2024-03-22T05:50:12;8.40;99.90
25332;DHT22;13284;52.748;13.452;2024-03-22T05:52:37;8.40;99.90
25332;DHT22;13284;52.748;13.452;2024-03-22T05:55:03;8.40;99.90
25332;DHT22;13284;52.748;13.452;2024-03-22T05:57:28;8.50;99.90
25332;DHT22;13284;52.748;13.452;2024-03-22T05:59:54;8.50;99.90
25332;DHT22;13284;52.748;13.452;2024-03-22T06:02:19;8.60;99.90
25332;DHT22;13284;52.748;13.452;2024-03-22T06:04:45;8.60;99.90
25332;DHT22;13284;52.748;13.452;2024-03-22T06:07:10;8.60;99.90
25332;DHT22;13284;52.748;13.452;2024-03-22T06:09:36;8.60;99.90
25332;DHT22;13284;52.748;13.452;2024-03-22T06:12:15;8.60;99.90
25332;DHT22;13284;52.748;13.452;2024-03-22T06:14:41;8.70;99.90
25332;DHT22;13284;52.748;13.452;2024-03-22T06:17:08;8.70;99.90
25332;DHT22;13284;52.748;13.452;2024-03-22T06:19:34;8.70;99.90
25332;DHT22;13284;52.748;13.452;2024-03-22T06:21:59;8.80;99.90
25332;DHT22;13284;52.748;13.452;2024-03-22T06:24:25;8.80;99.90
25332;DHT22;13284;52.748;13.452;2024-03-22T06:26:50;8.80;99.90
25332;DHT22;13284;52.748;13.452;2024-03-22T06:29:16;8.80;99.90
25332;DHT22;13284;52.748;13.452;2024-03-22T06:31:42;8.80;99.90
25332;DHT22;13284;52.748;13.452;2024-03-22T06:34:07;8.90;99.90
25332;DHT22;13284;52.748;13.452;2024-03-22T06:36:33;8.90;99.90
25332;DHT22;13284;52.748;13.452;2024-03-22T06:38:59;8.90;99.90
25332;DHT22;13284;52.748;13.452;2024-03-22T06:41:24;9.00;99.90
25332;DHT22;13284;52.748;13.452;2024-03-22T06:43:51;9.00;99.90
25332;DHT22;13284;52.748;13.452;2024-03-22T06:46:17;9.00;99.90
25332;DHT22;13284;52.748;13.452;2024-03-22T06:48:42;9.00;99.90
25332;DHT22;13284;52.748;13.452;2024-03-22T06:51:08;9.10;99.90
25332;DHT22;13284;52.748;13.452;2024-03-22T06:53:34;9.10;99.90
25332;DHT22;13284;52.748;13.452;2024-03-22T06:55:59;9.10;99.90
25332;DHT22;13284;52.748;13.452;2024-03-22T06:58:25;9.20;99.90
25332;DHT22;13284;52.748;13.452;2024-03-22T07:00:50;9.20;99.90
25332;DHT22;13284;52.748;13.452;2024-03-22T07:03:16;9.20;99.90
25332;DHT22;13284;52.748;13.452;2024-03-22T07:05:42;9.30;99.90
25332;DHT22;13284;52.748;13.452;2024-03-22T07:08:08;9.30;99.90
25332;DHT22;13284;52.748;13.452;2024-03-22T07:10:33;9.40;99.90
25332;DHT22;13284;52.748;13.452;2024-03-22T07:12:59;9.40;99.90
25332;DHT22;13284;52.748;13.452;2024-03-22T07:15:25;9.40;99.90
25332;DHT22;13284;52.748;13.452;2024-03-22T07:17:51;9.40;99.90
25332;DHT22;13284;52.748;13.452;2024-03-22T07:20:17;9.40;99.90
25332;DHT22;13284;52.748;13.452;2024-03-22T07:22:42;9.40;99.90
25332;DHT22;13284;52.748;13.452;2024-03-22T07:25:08;9.50;99.90
25332;DHT22;13284;52.748;13.452;2024-03-22T07:27:36;9.50;99.90
25332;DHT22;13284;52.748;13.452;2024-03-22T07:30:02;9.50;99.90
25332;DHT22;13284;52.748;13.452;2024-03-22T07:32:29;9.50;99.90
25332;DHT22;13284;52.748;13.452;2024-03-22T07:34:55;9.50;99.90
25332;DHT22;13284;52.748;13.452;2024-03-22T07:37:20;9.50;99.90
25332;DHT22;13284;52.748;13.452;2024-03-22T07:39:46;9.40;99.90
25332;DHT22;13284;52.748;13.452;2024-03-22T07:42:11;9.40;99.90
25332;DHT22;13284;52.748;13.452;2024-03-22T07:44:37;9.40;99.90
25332;DHT22;13284;52.748;13.452;2024-03-22T07:47:02;9.40;99.90
25332;DHT22;13284;52.748;13.452;2024-03-22T07:49:28;9.50;99.90
25332;DHT22;13284;52.748;13.452;2024-03-22T07:51:53;9.50;99.90
25332;DHT22;13284;52.748;13.452;2024-03-22T07:54:19;9.50;99.90
25332;DHT22;13284;52.748;13.452;2024-03-22T07:56:45;9.60;99.90
25332;DHT22;13284;52.748;13.452;2024-03-22T07:59:11;9.60;99.90
25332;DHT22;13284;52.748;13.452;2024-03-22T08:01:36;9.60;99.90
25332;DHT22;13284;52.748;13.452;2024-03-22T08:04:02;9.60;99.90
25332;DHT22;13284;52.748;13.452;2024-03-22T08:06:27;9.70;99.90
25332;DHT22;13284;52.748;13.452;2024-03-22T08:08:53;9.70;99.90
25332;DHT22;13284;52.748;13.452;2024-03-22T08:11:18;9.70;99.90
25332;DHT22;13284;52.748;13.452;2024-03-22T08:13:43;9.70;99.90
25332;DHT22;13284;52.748;13.452;2024-03-22T08:16:09;9.80;99.90
25332;DHT22;13284;52.748;13.452;2024-03-22T08:18:34;9.80;99.90
25332;DHT22;13284;52.748;13.452;2024-03-22T08:21:00;9.80;99.90
25332;DHT22;13284;52.748;13.452;2024-03-22T08:23:25;9.80;99.90
25332;DHT22;13284;52.748;13.452;2024-03-22T08:25:51;9.90;99.90
25332;DHT22;13284;52.748;13.452;2024-03-22T08:28:16;9.90;99.90
25332;DHT22;13284;52.748;13.452;2024-03-22T08:30:42;10.00;99.90
25332;DHT22;13284;52.748;13.452;2024-03-22T08:33:09;10.10;99.90
25332;DHT22;13284;52.748;13.452;2024-03-22T08:35:34;10.10;99.90
25332;DHT22;13284;52.748;13.452;2024-03-22T08:38:00;10.20;99.90
25332;DHT22;13284;52.748;13.452;2024-03-22T08:40:25;10.30;99.90
25332;DHT22;13284;52.748;13.452;2024-03-22T08:42:52;10.50;99.90
25332;DHT22;13284;52.748;13.452;2024-03-22T08:45:17;10.50;99.90
25332;DHT22;13284;52.748;13.452;2024-03-22T08:47:43;10.60;99.90
25332;DHT22;13284;52.748;13.452;2024-03-22T08:50:11;10.70;99.90
25332;DHT22;13284;52.748;13.452;2024-03-22T08:52:36;10.80;99.90
25332;DHT22;13284;52.748;13.452;2024-03-22T08:55:03;10.90;99.90
25332;DHT22;13284;52.748;13.452;2024-03-22T08:57:31;11.00;99.90
25332;DHT22;13284;52.748;13.452;2024-03-22T08:59:56;11.20;99.90
25332;DHT22;13284;52.748;13.452;2024-03-22T09:02:22;11.30;99.90
25332;DHT22;13284;52.748;13.452;2024-03-22T09:04:48;11.30;99.90
25332;DHT22;13284;52.748;13.452;2024-03-22T09:07:13;11.30;99.90
25332;DHT22;13284;52.748;13.452;2024-03-22T09:09:39;11.40;99.90
25332;DHT22;13284;52.748;13.452;2024-03-22T09:12:04;11.60;99.90
25332;DHT22;13284;52.748;13.452;2024-03-22T09:14:30;11.70;99.90
25332;DHT22;13284;52.748;13.452;2024-03-22T09:16:56;11.70;99.90
25332;DHT22;13284;52.748;13.452;2024-03-22T09:19:21;11.90;99.90
25332;DHT22;13284;52.748;13.452;2024-03-22T09:21:47;11.90;99.90
25332;DHT22;13284;52.748;13.452;2024-03-22T09:24:12;11.80;99.90
25332;DHT22;13284;52.748;13.452;2024-03-22T09:26:37;11.80;99.90
25332;DHT22;13284;52.748;13.452;2024-03-22T09:29:03;11.70;99.90
25332;DHT22;13284;52.748;13.452;2024-03-22T09:31:29;11.70;99.90
25332;DHT22;13284;52.748;13.452;2024-03-22T09:33:56;11.70;99.90
25332;DHT22;13284;52.748;13.452;2024-03-22T09:36:21;11.70;99.90
25332;DHT22;13284;52.748;13.452;2024-03-22T09:38:47;11.70;99.90
25332;DHT22;13284;52.748;13.452;2024-03-22T09:41:14;11.70;99.90
25332;DHT22;13284;52.748;13.452;2024-03-22T09:43:39;11.70;99.90
25332;DHT22;13284;52.748;13.452;2024-03-22T09:46:06;11.80;99.90
25332;DHT22;13284;52.748;13.452;2024-03-22T09:48:33;11.70;99.90
25332;DHT22;13284;52.748;13.452;2024-03-22T09:50:59;11.70;99.90
25332;DHT22;13284;52.748;13.452;2024-03-22T09:53:27;11.70;99.90
25332;DHT22;13284;52.748;13.452;2024-03-22T09:55:53;11.80;99.90
25332;DHT22;13284;52.748;13.452;2024-03-22T09:58:23;11.90;99.90
25332;DHT22;13284;52.748;13.452;2024-03-22T10:00:48;11.90;99.90
25332;DHT22;13284;52.748;13.452;2024-03-22T10:03:14;12.00;99.90
25332;DHT22;13284;52.748;13.452;2024-03-22T10:05:41;12.10;99.90
25332;DHT22;13284;52.748;13.452;2024-03-22T10:08:06;12.10;99.90
25332;DHT22;13284;52.748;13.452;2024-03-22T10:10:33;12.20;99.90
25332;DHT22;13284;52.748;13.452;2024-03-22T10:13:03;12.30;99.90
25332;DHT22;13284;52.748;13.452;2024-03-22T10:15:30;12.30;99.90
25332;DHT22;13284;52.748;13.452;2024-03-22T10:17:56;12.50;99.90
25332;DHT22;13284;52.748;13.452;2024-03-22T10:20:22;12.60;99.90
25332;DHT22;13284;52.748;13.452;2024-03-22T10:22:55;12.80;99.90
25332;DHT22;13284;52.748;13.452;2024-03-22T10:25:22;13.10;99.90
25332;DHT22;13284;52.748;13.452;2024-03-22T10:27:48;13.00;99.90
25332;DHT22;13284;52.748;13.452;2024-03-22T10:30:16;13.40;99.90
25332;DHT22;13284;52.748;13.452;2024-03-22T10:32:43;13.60;99.90
25332;DHT22;13284;52.748;13.452;2024-03-22T10:35:12;13.70;99.90
25332;DHT22;13284;52.748;13.452;2024-03-22T10:37:39;13.80;99.90
25332;DHT22;13284;52.748;13.452;2024-03-22T10:40:05;13.70;99.90
25332;DHT22;13284;52.748;13.452;2024-03-22T10:42:40;13.70;99.90
25332;DHT22;13284;52.748;13.452;2024-03-22T10:45:08;13.50;99.90
25332;DHT22;13284;52.748;13.452;2024-03-22T10:47:35;13.40;99.90
25332;DHT22;13284;52.748;13.452;2024-03-22T10:50:07;13.20;99.90
25332;DHT22;13284;52.748;13.452;2024-03-22T10:52:45;13.10;99.90
25332;DHT22;13284;52.748;13.452;2024-03-22T10:55:24;13.20;99.90
25332;DHT22;13284;52.748;13.452;2024-03-22T10:57:53;13.20;99.90
25332;DHT22;13284;52.748;13.452;2024-03-22T11:00:28;13.30;99.90
25332;DHT22;13284;52.748;13.452;2024-03-22T11:02:54;13.30;99.90
25332;DHT22;13284;52.748;13.452;2024-03-22T11:05:19;13.10;99.90
25332;DHT22;13284;52.748;13.452;2024-03-22T11:07:45;13.10;99.90
25332;DHT22;13284;52.748;13.452;2024-03-22T11:10:14;13.10;99.90
25332;DHT22;13284;52.748;13.452;2024-03-22T11:12:40;13.20;99.90
25332;DHT22;13284;52.748;13.452;2024-03-22T11:15:07;13.20;99.90
25332;DHT22;13284;52.748;13.452;2024-03-22T11:17:32;13.10;99.90
25332;DHT22;13284;52.748;13.452;2024-03-22T11:19:58;13.00;99.90
25332;DHT22;13284;52.748;13.452;2024-03-22T11:22:25;13.00;99.90
25332;DHT22;13284;52.748;13.452;2024-03-22T11:24:52;12.90;99.90
25332;DHT22;13284;52.748;13.452;2024-03-22T11:27:18;12.80;99.90
25332;DHT22;13284;52.748;13.452;2024-03-22T11:29:44;12.70;99.90
25332;DHT22;13284;52.748;13.452;2024-03-22T11:32:12;12.70;99.90
25332;DHT22;13284;52.748;13.452;2024-03-22T11:34:38;12.60;99.90
25332;DHT22;13284;52.748;13.452;2024-03-22T11:37:05;12.50;99.90
25332;DHT22;13284;52.748;13.452;2024-03-22T11:39:39;12.50;99.90
25332;DHT22;13284;52.748;13.452;2024-03-22T11:42:05;12.40;99.90
25332;DHT22;13284;52.748;13.452;2024-03-22T11:44:32;12.30;99.90
25332;DHT22;13284;52.748;13.452;2024-03-22T11:46:59;12.20;99.90
25332;DHT22;13284;52.748;13.452;2024-03-22T11:49:24;12.10;99.90
25332;DHT22;13284;52.748;13.452;2024-03-22T11:51:52;12.10;99.90
25332;DHT22;13284;52.748;13.452;2024-03-22T11:54:19;12.10;99.90
25332;DHT22;13284;52.748;13.452;2024-03-22T11:56:45;12.10;99.90
25332;DHT22;13284;52.748;13.452;2024-03-22T11:59:11;12.00;99.90
25332;DHT22;13284;52.748;13.452;2024-03-22T12:01:36;12.00;99.90
25332;DHT22;13284;52.748;13.452;2024-03-22T12:04:02;12.00;99.90
25332;DHT22;13284;52.748;13.452;2024-03-22T12:06:27;12.00;99.90
25332;DHT22;13284;52.748;13.452;2024-03-22T12:08:53;12.00;99.90
25332;DHT22;13284;52.748;13.452;2024-03-22T12:11:19;11.90;99.90
25332;DHT22;13284;52.748;13.452;2024-03-22T12:13:44;11.90;99.90
25332;DHT22;13284;52.748;13.452;2024-03-22T12:16:10;11.90;99.90
25332;DHT22;13284;52.748;13.452;2024-03-22T12:18:35;11.90;99.90
25332;DHT22;13284;52.748;13.452;2024-03-22T12:21:01;11.90;99.90
25332;DHT22;13284;52.748;13.452;2024-03-22T12:23:27;11.80;99.90
25332;DHT22;13284;52.748;13.452;2024-03-22T12:25:52;11.80;99.90
25332;DHT22;13284;52.748;13.452;2024-03-22T12:28:20;11.70;99.90
25332;DHT22;13284;52.748;13.452;2024-03-22T12:30:46;11.70;99.90
25332;DHT22;13284;52.748;13.452;2024-03-22T12:33:11;11.60;99.90
25332;DHT22;13284;52.748;13.452;2024-03-22T12:35:39;11.60;99.90
25332;DHT22;13284;52.748;13.452;2024-03-22T12:38:05;11.50;99.90
25332;DHT22;13284;52.748;13.452;2024-03-22T12:40:31;11.50;99.90
25332;DHT22;13284;52.748;13.452;2024-03-22T12:42:59;11.40;99.90
25332;DHT22;13284;52.748;13.452;2024-03-22T12:45:25;11.30;99.90
25332;DHT22;13284;52.748;13.452;2024-03-22T12:47:51;11.20;99.90
25332;DHT22;13284;52.748;13.452;2024-03-22T12:50:16;11.20;99.90
25332;DHT22;13284;52.748;13.452;2024-03-22T12:52:42;11.20;99.90
25332;DHT22;13284;52.748;13.452;2024-03-22T12:55:09;11.20;99.90
25332;DHT22;13284;52.748;13.452;2024-03-22T12:57:35;11.20;99.90
25332;DHT22;13284;52.748;13.452;2024-03-22T13:00:00;11.10;99.90
25332;DHT22;13284;52.748;13.452;2024-03-22T13:02:26;11.00;99.90
25332;DHT22;13284;52.748;13.452;2024-03-22T13:04:52;11.00;99.90
25332;DHT22;13284;52.748;13.452;2024-03-22T13:07:19;11.00;99.90
25332;DHT22;13284;52.748;13.452;2024-03-22T13:09:45;10.90;99.90
25332;DHT22;13284;52.748;13.452;2024-03-22T13:12:10;11.00;99.90
25332;DHT22;13284;52.748;13.452;2024-03-22T13:14:36;11.00;99.90
25332;DHT22;13284;52.748;13.452;2024-03-22T13:17:01;11.00;99.90
25332;DHT22;13284;52.748;13.452;2024-03-22T13:19:27;11.00;99.90
25332;DHT22;13284;52.748;13.452;2024-03-22T13:21:53;11.00;99.90
25332;DHT22;13284;52.748;13.452;2024-03-22T13:24:18;11.10;99.90
25332;DHT22;13284;52.748;13.452;2024-03-22T13:26:44;11.10;99.90
25332;DHT22;13284;52.748;13.452;2024-03-22T13:29:10;11.20;99.90
25332;DHT22;13284;52.748;13.452;2024-03-22T13:31:39;11.10;99.90
25332;DHT22;13284;52.748;13.452;2024-03-22T13:34:04;11.10;99.90
25332;DHT22;13284;52.748;13.452;2024-03-22T13:36:30;11.10;99.90
25332;DHT22;13284;52.748;13.452;2024-03-22T13:38:58;11.10;99.90
25332;DHT22;13284;52.748;13.452;2024-03-22T13:41:23;11.10;99.90
25332;DHT22;13284;52.748;13.452;2024-03-22T13:43:49;11.20;99.90
25332;DHT22;13284;52.748;13.452;2024-03-22T13:46:14;11.10;99.90
25332;DHT22;13284;52.748;13.452;2024-03-22T13:48:42;11.10;99.90
25332;DHT22;13284;52.748;13.452;2024-03-22T13:51:08;11.10;99.90
25332;DHT22;13284;52.748;13.452;2024-03-22T13:53:34;11.10;99.90
25332;DHT22;13284;52.748;13.452;2024-03-22T13:55:59;11.10;99.90
25332;DHT22;13284;52.748;13.452;2024-03-22T13:58:26;11.10;99.90
25332;DHT22;13284;52.748;13.452;2024-03-22T14:00:52;11.20;99.90
25332;DHT22;13284;52.748;13.452;2024-03-22T14:03:18;11.20;99.90
25332;DHT22;13284;52.748;13.452;2024-03-22T14:05:43;11.20;99.90
25332;DHT22;13284;52.748;13.452;2024-03-22T14:08:09;11.10;99.90
25332;DHT22;13284;52.748;13.452;2024-03-22T14:10:35;11.10;99.90
25332;DHT22;13284;52.748;13.452;2024-03-22T14:13:01;11.10;99.90
25332;DHT22;13284;52.748;13.452;2024-03-22T14:15:26;11.20;99.90
25332;DHT22;13284;52.748;13.452;2024-03-22T14:17:56;11.20;99.90
25332;DHT22;13284;52.748;13.452;2024-03-22T14:20:23;11.20;99.90
25332;DHT22;13284;52.748;13.452;2024-03-22T14:22:48;11.20;99.90
25332;DHT22;13284;52.748;13.452;2024-03-22T14:25:14;11.20;99.90
25332;DHT22;13284;52.748;13.452;2024-03-22T14:27:39;11.20;99.90
25332;DHT22;13284;52.748;13.452;2024-03-22T14:30:12;11.20;99.90
25332;DHT22;13284;52.748;13.452;2024-03-22T14:32:39;11.20;99.90
25332;DHT22;13284;52.748;13.452;2024-03-22T14:35:06;11.20;99.90
25332;DHT22;13284;52.748;13.452;2024-03-22T14:37:32;11.30;99.90
25332;DHT22;13284;52.748;13.452;2024-03-22T14:39:57;11.30;99.90
25332;DHT22;13284;52.748;13.452;2024-03-22T14:42:24;11.20;99.90
25332;DHT22;13284;52.748;13.452;2024-03-22T14:44:49;11.20;99.90
25332;DHT22;13284;52.748;13.452;2024-03-22T14:47:15;11.20;99.90
25332;DHT22;13284;52.748;13.452;2024-03-22T14:49:41;11.20;99.90
25332;DHT22;13284;52.748;13.452;2024-03-22T14:52:08;11.20;99.90
25332;DHT22;13284;52.748;13.452;2024-03-22T14:54:33;11.10;99.90
25332;DHT22;13284;52.748;13.452;2024-03-22T14:56:59;11.10;99.90
25332;DHT22;13284;52.748;13.452;2024-03-22T14:59:28;11.10;99.90
25332;DHT22;13284;52.748;13.452;2024-03-22T15:01:54;11.10;99.90
25332;DHT22;13284;52.748;13.452;2024-03-22T15:04:20;11.10;99.90
25332;DHT22;13284;52.748;13.452;2024-03-22T15:06:46;11.10;99.90
25332;DHT22;13284;52.748;13.452;2024-03-22T15:09:13;11.10;99.90
25332;DHT22;13284;52.748;13.452;2024-03-22T15:11:39;11.10;99.90
25332;DHT22;13284;52.748;13.452;2024-03-22T15:14:04;11.10;99.90
25332;DHT22;13284;52.748;13.452;2024-03-22T15:16:30;11.10;99.90